sensor_id;sensor_type;location;lat;lon;timestamp;pressure;altitude;pressure_sealevel;temperature;humidity
83104;BME280;72975;48.134;11.630;2024-03-23T07:52:31;94628.91;;;13.21;55.23
83104;BME280;72975;48.134;11.630;2024-03-23T07:54:58;94624.50;;;13.07;57.94
83104;BME280;72975;48.134;11.630;2024-03-23T07:57:24;94630.69;;;12.67;60.01
83104;BME280;72975;48.134;11.630;2024-03-23T07:59:51;94630.69;;;12.67;60.63
83104;BME280;72975;48.134;11.630;2024-03-23T08:02:18;94640.50;;;12.39;61.12
83104;BME280;72975;48.134;11.630;2024-03-23T08:04:48;94689.03;;;12.09;61.78
83104;BME280;72975;48.134;11.630;2024-03-23T08:07:23;94656.38;;;11.93;64.10
83104;BME280;72975;48.134;11.630;2024-03-23T08:10:00;94674.97;;;11.64;66.24
83104;BME280;72975;48.134;11.630;2024-03-23T08:12:30;94681.41;;;11.39;68.22
83104;BME280;72975;48.134;11.630;2024-03-23T08:14:57;94679.88;;;11.38;68.38
83104;BME280;72975;48.134;11.630;2024-03-23T08:17:24;94697.38;;;11.38;69.30
83104;BME280;72975;48.134;11.630;2024-03-23T08:19:55;94689.31;;;11.20;70.29
83104;BME280;72975;48.134;11.630;2024-03-23T08:22:27;94701.66;;;11.15;70.74
83104;BME280;72975;48.134;11.630;2024-03-23T08:24:57;94718.66;;;10.98;72.07
83104;BME280;72975;48.134;11.630;2024-03-23T08:27:36;94724.19;;;10.78;72.33
83104;BME280;72975;48.134;11.630;2024-03-23T08:30:14;94725.00;;;10.92;72.73
83104;BME280;72975;48.134;11.630;2024-03-23T08:33:18;94728.13;;;10.57;74.30
83104;BME280;72975;48.134;11.630;2024-03-23T08:36:03;94756.25;;;10.60;75.19
83104;BME280;72975;48.134;11.630;2024-03-23T08:38:36;94744.44;;;10.49;76.67
83104;BME280;72975;48.134;11.630;2024-03-23T08:41:11;94775.84;;;10.39;74.67
83104;BME280;72975;48.134;11.630;2024-03-23T08:43:54;94782.06;;;10.19;74.41
83104;BME280;72975;48.134;11.630;2024-03-23T08:46:23;94785.75;;;9.89;74.78
83104;BME280;72975;48.134;11.630;2024-03-23T08:49:00;94775.38;;;9.60;75.11
83104;BME280;72975;48.134;11.630;2024-03-23T08:51:33;94794.31;;;9.66;74.72
83104;BME280;72975;48.134;11.630;2024-03-23T08:54:01;94785.44;;;9.67;74.26
83104;BME280;72975;48.134;11.630;2024-03-23T08:56:32;94802.66;;;9.63;75.00
83104;BME280;72975;48.134;11.630;2024-03-23T08:59:15;94808.44;;;9.60;75.54
83104;BME280;72975;48.134;11.630;2024-03-23T09:01:45;94820.00;;;9.48;76.04
83104;BME280;72975;48.134;11.630;2024-03-23T09:04:13;94813.16;;;9.58;75.14
83104;BME280;72975;48.134;11.630;2024-03-23T09:06:57;94826.72;;;9.55;75.99
83104;BME280;72975;48.134;11.630;2024-03-23T09:09:27;94838.66;;;9.27;77.19
83104;BME280;72975;48.134;11.630;2024-03-23T09:11:56;94840.03;;;9.14;77.57
83104;BME280;72975;48.134;11.630;2024-03-23T09:14:26;94843.38;;;9.20;76.84
83104;BME280;72975;48.134;11.630;2024-03-23T09:17:08;94829.53;;;9.29;76.85
83104;BME280;72975;48.134;11.630;2024-03-23T09:19:47;94832.69;;;9.21;77.01
83104;BME280;72975;48.134;11.630;2024-03-23T09:22:17;94827.06;;;9.43;77.37
83104;BME280;72975;48.134;11.630;2024-03-23T09:24:43;94828.44;;;9.35;77.28
83104;BME280;72975;48.134;11.630;2024-03-23T09:27:11;94844.63;;;9.27;77.84
83104;BME280;72975;48.134;11.630;2024-03-23T09:42:50;94861.69;;;9.04;78.15
83104;BME280;72975;48.134;11.630;2024-03-23T13:54:49;94950.34;;;8.59;54.65
83104;BME280;72975;48.134;11.630;2024-03-23T14:04:52;95006.50;;;7.94;60.11
83104;BME280;72975;48.134;11.630;2024-03-23T14:08:11;95009.50;;;7.30;65.65
83104;BME280;72975;48.134;11.630;2024-03-23T14:11:27;94714.03;;;5.06;68.44
83104;BME280;72975;48.134;11.630;2024-03-23T14:21:11;94979.56;;;7.07;67.78
83104;BME280;72975;48.134;11.630;2024-03-23T14:25:07;94983.47;;;7.10;67.80
83104;BME280;72975;48.134;11.630;2024-03-23T14:28:18;94709.72;;;5.22;67.37
83104;BME280;72975;48.134;11.630;2024-03-23T14:31:33;94993.16;;;7.24;67.96
83104;BME280;72975;48.134;11.630;2024-03-23T14:38:50;94992.94;;;7.46;66.12
83104;BME280;72975;48.134;11.630;2024-03-23T14:41:54;94991.78;;;7.12;66.53
83104;BME280;72975;48.134;11.630;2024-03-23T14:59:19;95039.03;;;7.19;56.10
83104;BME280;72975;48.134;11.630;2024-03-23T15:06:04;94751.63;;;4.60;56.85
83104;BME280;72975;48.134;11.630;2024-03-23T15:09:37;95071.31;;;6.49;58.51
83104;BME280;72975;48.134;11.630;2024-03-23T15:12:48;95093.53;;;6.40;59.17
83104;BME280;72975;48.134;11.630;2024-03-23T15:19:03;95059.28;;;5.79;66.66
83104;BME280;72975;48.134;11.630;2024-03-23T15:28:38;95018.59;;;6.01;67.40
83104;BME280;72975;48.134;11.630;2024-03-23T15:31:39;95020.66;;;5.72;68.58
83104;BME280;72975;48.134;11.630;2024-03-23T15:35:07;95015.22;;;6.01;68.37
83104;BME280;72975;48.134;11.630;2024-03-23T15:38:26;94997.97;;;6.11;68.18
83104;BME280;72975;48.134;11.630;2024-03-23T15:41:20;94988.97;;;5.65;69.50
83104;BME280;72975;48.134;11.630;2024-03-23T15:51:24;94973.91;;;6.16;69.03
83104;BME280;72975;48.134;11.630;2024-03-23T15:58:54;95001.56;;;6.10;69.19
83104;BME280;72975;48.134;11.630;2024-03-23T16:08:38;94996.09;;;6.07;69.62
83104;BME280;72975;48.134;11.630;2024-03-23T16:11:37;94986.16;;;6.31;68.91
83104;BME280;72975;48.134;11.630;2024-03-23T16:25:38;94979.66;;;6.23;68.23
83104;BME280;72975;48.134;11.630;2024-03-23T16:32:26;94992.13;;;6.31;67.60
83104;BME280;72975;48.134;11.630;2024-03-23T16:35:12;94992.81;;;6.16;68.38
83104;BME280;72975;48.134;11.630;2024-03-23T16:38:02;94995.84;;;6.03;69.33
83104;BME280;72975;48.134;11.630;2024-03-23T16:40:57;94922.59;;;5.49;70.08
83104;BME280;72975;48.134;11.630;2024-03-23T16:43:42;94990.72;;;6.13;70.02
83104;BME280;72975;48.134;11.630;2024-03-23T16:49:49;94996.41;;;6.52;67.91
83104;BME280;72975;48.134;11.630;2024-03-23T16:52:39;94999.38;;;6.29;67.93
83104;BME280;72975;48.134;11.630;2024-03-23T17:01:08;94988.88;;;6.09;68.28
83104;BME280;72975;48.134;11.630;2024-03-23T17:03:52;94987.25;;;6.40;68.14
83104;BME280;72975;48.134;11.630;2024-03-23T17:07:04;95000.22;;;6.40;68.20
83104;BME280;72975;48.134;11.630;2024-03-23T17:16:54;95016.84;;;5.85;71.85
83104;BME280;72975;48.134;11.630;2024-03-23T17:20:12;95025.75;;;5.89;72.69
83104;BME280;72975;48.134;11.630;2024-03-23T17:29:19;95031.53;;;5.74;69.98
83104;BME280;72975;48.134;11.630;2024-03-23T17:32:16;95045.81;;;5.55;70.71
83104;BME280;72975;48.134;11.630;2024-03-23T17:35:14;95091.41;;;5.56;71.12
83104;BME280;72975;48.134;11.630;2024-03-23T17:40:55;95079.47;;;4.73;73.31
83104;BME280;72975;48.134;11.630;2024-03-23T17:43:59;95081.13;;;4.46;74.43
83104;BME280;72975;48.134;11.630;2024-03-23T17:46:44;95037.28;;;4.51;74.21
83104;BME280;72975;48.134;11.630;2024-03-23T17:53:18;95050.41;;;4.66;73.67
83104;BME280;72975;48.134;11.630;2024-03-23T18:04:11;95052.75;;;4.84;72.04
83104;BME280;72975;48.134;11.630;2024-03-23T18:07:20;95061.19;;;4.96;71.90
83104;BME280;72975;48.134;11.630;2024-03-23T18:20:08;95082.94;;;5.00;70.52
83104;BME280;72975;48.134;11.630;2024-03-23T18:30:27;95096.88;;;4.61;71.84
83104;BME280;72975;48.134;11.630;2024-03-23T18:36:47;95042.63;;;4.11;73.58
83104;BME280;72975;48.134;11.630;2024-03-23T18:40:09;95114.72;;;4.46;72.71
83104;BME280;72975;48.134;11.630;2024-03-23T18:43:31;95116.44;;;4.40;73.75
83104;BME280;72975;48.134;11.630;2024-03-23T18:46:36;95122.16;;;4.59;72.82
83104;BME280;72975;48.134;11.630;2024-03-23T18:49:13;95109.09;;;4.32;74.33
83104;BME280;72975;48.134;11.630;2024-03-23T18:51:58;95109.41;;;4.52;74.25
83104;BME280;72975;48.134;11.630;2024-03-23T18:54:27;95123.03;;;4.31;74.64
83104;BME280;72975;48.134;11.630;2024-03-23T19:07:50;95045.53;;;3.69;76.14
83104;BME280;72975;48.134;11.630;2024-03-23T19:11:29;95095.63;;;4.30;74.09
83104;BME280;72975;48.134;11.630;2024-03-23T19:26:02;95078.63;;;4.34;75.27
83104;BME280;72975;48.134;11.630;2024-03-23T19:29:47;95085.25;;;4.13;75.22
83104;BME280;72975;48.134;11.630;2024-03-23T19:36:57;95086.75;;;4.26;74.93
83104;BME280;72975;48.134;11.630;2024-03-23T19:40:09;95079.34;;;4.29;75.34
83104;BME280;72975;48.134;11.630;2024-03-23T19:51:55;95066.44;;;4.29;75.96
83104;BME280;72975;48.134;11.630;2024-03-23T19:55:37;95059.91;;;4.44;75.28
83104;BME280;72975;48.134;11.630;2024-03-23T20:25:54;95049.28;;;4.07;76.95
83104;BME280;72975;48.134;11.630;2024-03-23T20:29:29;94974.31;;;3.68;76.67
83104;BME280;72975;48.134;11.630;2024-03-23T20:36:25;95048.50;;;3.89;76.65
83104;BME280;72975;48.134;11.630;2024-03-23T20:39:39;95043.00;;;3.86;76.28
83104;BME280;72975;48.134;11.630;2024-03-23T22:46:32;95031.03;;;3.51;74.95
83104;BME280;72975;48.134;11.630;2024-03-23T22:49:48;94553.38;;;0.35;75.33
